Time,TemperatureF,DewpointF,PressureIn,WindDirection,WindDirectionDegrees,WindSpeedMPH,WindSpeedGustMPH,Humidity,HourlyPrecipIn,Conditions,Clouds,dailyrainin,SoftwareType,DateUTC
2013-10-16 00:00:00,79.2,68.6,29.95,East,95,2.0,2.0,70,0.00,,,0.00,Wunderground v.1.15,2013-10-16 04:00:00,
2013-10-16 00:10:00,79.2,68.6,29.94,ENE,77,2.0,6.0,70,0.00,,,0.00,Wunderground v.1.15,2013-10-16 04:10:00,
2013-10-16 00:20:00,79.3,68.2,29.94,ENE,62,4.0,4.0,69,0.00,,,0.00,Wunderground v.1.15,2013-10-16 04:20:00,
2013-10-16 00:30:00,79.2,68.1,29.94,East,101,3.0,3.0,69,0.00,,,0.00,Wunderground v.1.15,2013-10-16 04:30:00,
2013-10-16 00:40:00,79.0,68.0,29.94,ENE,68,2.0,5.0,69,0.00,,,0.00,Wunderground v.1.15,2013-10-16 04:40:00,
2013-10-16 00:50:00,78.8,68.2,29.93,East,80,2.0,3.0,70,0.00,,,0.00,Wunderground v.1.15,2013-10-16 04:50:00,
2013-10-16 01:00:00,78.8,68.2,29.93,ENE,70,3.0,3.0,70,0.00,,,0.00,Wunderground v.1.15,2013-10-16 05:00:00,
2013-10-16 01:10:00,78.8,67.8,29.93,ENE,68,2.0,3.0,69,0.00,,,0.00,Wunderground v.1.15,2013-10-16 05:10:00,
2013-10-16 01:20:00,78.7,67.7,29.93,ENE,71,2.0,2.0,69,0.00,,,0.00,Wunderground v.1.15,2013-10-16 05:20:00,
2013-10-16 01:30:00,78.7,68.1,29.93,NE,46,2.0,2.0,70,0.00,,,0.00,Wunderground v.1.15,2013-10-16 05:30:00,
2013-10-16 01:40:00,78.5,67.9,29.93,East,79,2.0,2.0,70,0.00,,,0.00,Wunderground v.1.15,2013-10-16 05:40:00,
2013-10-16 01:50:00,78.5,67.9,29.93,ENE,57,1.0,2.0,70,0.00,,,0.00,Wunderground v.1.15,2013-10-16 05:50:00,
2013-10-16 02:00:00,78.5,68.3,29.92,East,86,2.0,2.0,71,0.00,,,0.00,Wunderground v.1.15,2013-10-16 06:00:00,
2013-10-16 02:10:00,78.3,68.1,29.92,ENE,64,1.0,2.0,71,0.00,,,0.00,Wunderground v.1.15,2013-10-16 06:10:00,
2013-10-16 02:20:00,78.0,67.8,29.92,East,86,1.0,2.0,71,0.00,,,0.00,Wunderground v.1.15,2013-10-16 06:20:00,
2013-10-16 02:30:00,78.0,67.8,29.92,NE,51,2.0,2.0,71,0.00,,,0.00,Wunderground v.1.15,2013-10-16 06:30:00,
2013-10-16 02:40:00,77.9,67.7,29.92,ENE,70,1.0,1.0,71,0.00,,,0.00,Wunderground v.1.15,2013-10-16 06:40:00,
2013-10-16 02:50:00,77.8,67.6,29.92,NE,41,1.0,1.0,71,0.00,,,0.00,Wunderground v.1.15,2013-10-16 06:50:00,
2013-10-16 03:00:00,77.7,67.5,29.91,East,79,1.0,1.0,71,0.00,,,0.00,Wunderground v.1.15,2013-10-16 07:00:00,
2013-10-16 03:10:00,77.4,67.7,29.91,East,90,0.0,0.0,72,0.00,,,0.00,Wunderground v.1.15,2013-10-16 07:10:00,
2013-10-16 03:20:00,76.8,67.5,29.91,East,90,0.0,0.0,73,0.00,,,0.00,Wunderground v.1.15,2013-10-16 07:20:00,
2013-10-16 03:30:00,76.3,67.4,29.91,East,82,0.0,0.0,74,0.00,,,0.00,Wunderground v.1.15,2013-10-16 07:30:00,
2013-10-16 03:40:00,75.7,67.6,29.90,NNW,335,0.0,0.0,76,0.00,,,0.00,Wunderground v.1.15,2013-10-16 07:40:00,
2013-10-16 03:50:00,75.2,67.5,29.90,NNW,335,0.0,0.0,77,0.00,,,0.00,Wunderground v.1.15,2013-10-16 07:50:00,
2013-10-16 04:00:00,74.8,67.5,29.90,NNW,336,0.0,0.0,78,0.00,,,0.00,Wunderground v.1.15,2013-10-16 08:00:00,
2013-10-16 04:10:00,74.5,67.9,29.90,NNW,335,0.0,0.0,80,0.00,,,0.00,Wunderground v.1.15,2013-10-16 08:10:00,
2013-10-16 04:20:00,74.3,67.7,29.90,NNW,331,0.0,0.0,80,0.00,,,0.00,Wunderground v.1.15,2013-10-16 08:20:00,
2013-10-16 04:30:00,74.0,67.8,29.90,NW,323,0.0,0.0,81,0.00,,,0.00,Wunderground v.1.15,2013-10-16 08:30:00,
2013-10-16 04:40:00,73.8,68.0,29.90,NW,326,0.0,0.0,82,0.00,,,0.00,Wunderground v.1.15,2013-10-16 08:40:00,
2013-10-16 04:50:00,73.6,68.1,29.90,NW,326,0.0,0.0,83,0.00,,,0.00,Wunderground v.1.15,2013-10-16 08:50:00,
2013-10-16 05:00:00,73.5,68.0,29.90,NW,326,0.0,0.0,83,0.00,,,0.00,Wunderground v.1.15,2013-10-16 09:00:00,
2013-10-16 05:10:00,73.5,68.0,29.90,NNW,332,0.0,0.0,83,0.00,,,0.00,Wunderground v.1.15,2013-10-16 09:10:00,
2013-10-16 05:20:00,73.7,68.2,29.90,NNW,335,0.0,0.0,83,0.00,,,0.00,Wunderground v.1.15,2013-10-16 09:20:00,
2013-10-16 05:30:00,74.1,68.6,29.91,NNW,340,0.0,0.0,83,0.00,,,0.00,Wunderground v.1.15,2013-10-16 09:30:00,
2013-10-16 05:40:00,74.2,68.3,29.91,North,360,0.0,0.0,82,0.00,,,0.00,Wunderground v.1.15,2013-10-16 09:40:00,
2013-10-16 05:50:00,73.9,68.4,29.91,NW,315,0.0,0.0,83,0.00,,,0.00,Wunderground v.1.15,2013-10-16 09:50:00,
2013-10-16 06:00:00,73.7,68.6,29.91,NW,315,0.0,0.0,84,0.00,,,0.00,Wunderground v.1.15,2013-10-16 10:00:00,
2013-10-16 06:10:00,73.6,68.5,29.92,NW,316,0.0,0.0,84,0.00,,,0.00,Wunderground v.1.15,2013-10-16 10:10:00,
2013-10-16 06:20:00,73.4,68.3,29.92,NNW,336,0.0,0.0,84,0.00,,,0.00,Wunderground v.1.15,2013-10-16 10:20:00,
2013-10-16 06:30:00,73.3,68.2,29.92,NNW,334,0.0,0.0,84,0.00,,,0.00,Wunderground v.1.15,2013-10-16 10:30:00,
2013-10-16 06:40:00,73.1,68.0,29.92,NNW,334,0.0,0.0,84,0.00,,,0.00,Wunderground v.1.15,2013-10-16 10:40:00,
2013-10-16 06:50:00,73.0,68.2,29.92,NNW,331,0.0,1.0,85,0.00,,,0.00,Wunderground v.1.15,2013-10-16 10:50:00,
2013-10-16 07:00:00,72.9,68.1,29.93,NNW,338,1.0,1.0,85,0.00,,,0.00,Wunderground v.1.15,2013-10-16 11:00:00,
2013-10-16 07:10:00,72.8,68.0,29.93,NNW,336,1.0,1.0,85,0.00,,,0.00,Wunderground v.1.15,2013-10-16 11:10:00,
2013-10-16 07:20:00,72.9,68.1,29.94,NNW,332,1.0,1.0,85,0.00,,,0.00,Wunderground v.1.15,2013-10-16 11:20:00,
2013-10-16 07:30:00,73.0,68.2,29.93,NNW,333,1.0,1.0,85,0.00,,,0.00,Wunderground v.1.15,2013-10-16 11:30:00,
2013-10-16 07:40:00,73.1,68.3,29.94,NNW,332,0.0,0.0,85,0.00,,,0.00,Wunderground v.1.15,2013-10-16 11:40:00,
2013-10-16 07:50:00,73.3,68.5,29.94,NNW,347,1.0,2.0,85,0.00,,,0.00,Wunderground v.1.15,2013-10-16 11:50:00,
2013-10-16 08:00:00,73.7,68.6,29.94,NNW,329,1.0,2.0,84,0.00,,,0.00,Wunderground v.1.15,2013-10-16 12:00:00,
2013-10-16 08:10:00,74.1,69.0,29.94,North,11,2.0,3.0,84,0.00,,,0.00,Wunderground v.1.15,2013-10-16 12:10:00,
2013-10-16 08:20:00,74.5,69.0,29.95,NNW,345,2.0,2.0,83,0.00,,,0.00,Wunderground v.1.15,2013-10-16 12:20:00,
2013-10-16 08:30:00,75.1,69.2,29.95,North,359,2.0,2.0,82,0.00,,,0.00,Wunderground v.1.15,2013-10-16 12:30:00,
2013-10-16 08:40:00,75.4,69.2,29.95,North,352,0.0,0.0,81,0.00,,,0.00,Wunderground v.1.15,2013-10-16 12:40:00,
2013-10-16 08:50:00,75.7,69.8,29.95,SW,228,0.0,0.0,82,0.00,,,0.00,Wunderground v.1.15,2013-10-16 12:50:00,
2013-10-16 09:00:00,75.7,69.8,29.95,SSW,208,1.0,1.0,82,0.00,,,0.00,Wunderground v.1.15,2013-10-16 13:00:00,
2013-10-16 09:10:00,75.7,70.2,29.96,SW,228,0.0,2.0,83,0.00,,,0.00,Wunderground v.1.15,2013-10-16 13:10:00,
2013-10-16 09:20:00,75.8,70.3,29.96,SW,226,1.0,1.0,83,0.00,,,0.00,Wunderground v.1.15,2013-10-16 13:20:00,
2013-10-16 09:30:00,76.0,71.2,29.96,SSW,211,1.0,1.0,85,0.00,,,0.00,Wunderground v.1.15,2013-10-16 13:30:00,
2013-10-16 09:40:00,75.7,71.6,29.96,WSW,238,1.0,1.0,87,0.00,,,0.00,Wunderground v.1.15,2013-10-16 13:40:00,
2013-10-16 09:50:00,75.6,71.5,29.96,South,174,1.0,1.0,87,0.00,,,0.00,Wunderground v.1.15,2013-10-16 13:50:00,
2013-10-16 10:00:00,75.4,70.9,29.96,West,270,1.0,2.0,86,0.00,,,0.00,Wunderground v.1.15,2013-10-16 14:00:00,
2013-10-16 10:10:00,75.7,71.6,29.97,WSW,245,1.0,1.0,87,0.00,,,0.00,Wunderground v.1.15,2013-10-16 14:10:00,
2013-10-16 10:20:00,75.7,71.6,29.97,SE,144,1.0,3.0,87,0.00,,,0.00,Wunderground v.1.15,2013-10-16 14:20:00,
2013-10-16 10:30:00,75.6,71.5,29.97,East,84,2.0,2.0,87,0.00,,,0.01,Wunderground v.1.15,2013-10-16 14:30:00,
2013-10-16 10:40:00,75.9,71.8,29.97,ESE,121,1.0,1.0,87,0.00,,,0.01,Wunderground v.1.15,2013-10-16 14:40:00,
2013-10-16 10:50:00,75.7,70.2,29.97,East,95,3.0,5.0,83,0.00,,,0.01,Wunderground v.1.15,2013-10-16 14:50:00,
2013-10-16 11:00:00,76.2,69.6,29.97,SE,125,2.0,3.0,80,0.00,,,0.01,Wunderground v.1.15,2013-10-16 15:00:00,
2013-10-16 11:10:00,76.6,70.0,29.97,East,82,2.0,2.0,80,0.00,,,0.01,Wunderground v.1.15,2013-10-16 15:10:00,
2013-10-16 11:20:00,77.0,68.9,29.97,East,79,2.0,2.0,76,0.00,,,0.01,Wunderground v.1.15,2013-10-16 15:20:00,
2013-10-16 11:30:00,78.6,67.6,29.96,North,356,1.0,1.0,69,0.00,,,0.01,Wunderground v.1.15,2013-10-16 15:30:00,
2013-10-16 11:40:00,80.1,65.4,29.96,NW,326,1.0,2.0,61,0.00,,,0.01,Wunderground v.1.15,2013-10-16 15:40:00,
2013-10-16 11:50:00,81.2,68.8,29.96,NE,46,3.0,3.0,66,0.00,,,0.01,Wunderground v.1.15,2013-10-16 15:50:00,
2013-10-16 12:00:00,81.6,69.1,29.96,NE,34,4.0,4.0,66,0.00,,,0.01,Wunderground v.1.15,2013-10-16 16:00:00,
2013-10-16 12:10:00,82.1,70.1,29.95,NE,51,4.0,4.0,67,0.00,,,0.01,Wunderground v.1.15,2013-10-16 16:10:00,
2013-10-16 12:20:00,82.7,69.7,29.95,ENE,68,5.0,5.0,65,0.00,,,0.01,Wunderground v.1.15,2013-10-16 16:20:00,
2013-10-16 12:30:00,83.3,68.4,29.95,East,86,6.0,6.0,61,0.00,,,0.01,Wunderground v.1.15,2013-10-16 16:30:00,
2013-10-16 12:40:00,83.3,68.9,29.95,NE,46,5.0,5.0,62,0.00,,,0.01,Wunderground v.1.15,2013-10-16 16:40:00,
2013-10-16 12:50:00,83.8,68.9,29.94,NNE,20,5.0,7.0,61,0.00,,,0.01,Wunderground v.1.15,2013-10-16 16:50:00,
2013-10-16 13:00:00,83.8,69.4,29.94,East,101,5.0,5.0,62,0.00,,,0.01,Wunderground v.1.15,2013-10-16 17:00:00,
2013-10-16 13:10:00,83.5,68.6,29.94,NE,54,5.0,5.0,61,0.00,,,0.01,Wunderground v.1.15,2013-10-16 17:10:00,
2013-10-16 13:20:00,82.9,68.1,29.94,NE,40,6.0,6.0,61,0.00,,,0.01,Wunderground v.1.15,2013-10-16 17:20:00,
2013-10-16 13:30:00,83.1,68.7,29.94,East,91,5.0,5.0,62,0.00,,,0.01,Wunderground v.1.15,2013-10-16 17:30:00,
2013-10-16 13:40:00,82.8,69.4,29.93,East,81,5.0,5.0,64,0.00,,,0.01,Wunderground v.1.15,2013-10-16 17:40:00,
2013-10-16 13:49:00,82.5,68.6,29.93,NE,46,5.0,5.0,63,0.00,,,0.01,Wunderground v.1.15,2013-10-16 17:49:00,
2013-10-16 14:00:00,82.7,68.8,29.93,NE,40,4.0,4.0,63,0.00,,,0.01,Wunderground v.1.15,2013-10-16 18:00:00,
2013-10-16 14:10:00,82.5,68.6,29.93,ENE,64,5.0,5.0,63,0.00,,,0.01,Wunderground v.1.15,2013-10-16 18:10:00,
2013-10-16 14:20:00,82.4,68.1,29.93,ESE,110,5.0,5.0,62,0.00,,,0.01,Wunderground v.1.15,2013-10-16 18:20:00,
2013-10-16 14:30:00,82.8,68.4,29.92,East,83,4.0,5.0,62,0.00,,,0.01,Wunderground v.1.15,2013-10-16 18:30:00,
2013-10-16 14:40:00,82.3,68.4,29.92,ENE,64,5.0,7.0,63,0.00,,,0.01,Wunderground v.1.15,2013-10-16 18:40:00,
2013-10-16 14:50:00,82.5,68.2,29.92,ENE,65,4.0,9.0,62,0.00,,,0.01,Wunderground v.1.15,2013-10-16 18:50:00,
2013-10-16 15:00:00,83.0,68.2,29.92,NE,47,5.0,5.0,61,0.00,,,0.01,Wunderground v.1.15,2013-10-16 19:00:00,
2013-10-16 15:10:00,82.6,68.3,29.91,ENE,70,5.0,5.0,62,0.00,,,0.01,Wunderground v.1.15,2013-10-16 19:10:00,
2013-10-16 15:19:00,82.8,68.4,29.91,East,90,4.0,5.0,62,0.00,,,0.01,Wunderground v.1.15,2013-10-16 19:19:00,
2013-10-16 15:30:00,82.4,68.5,29.91,ENE,74,5.0,5.0,63,0.00,,,0.01,Wunderground v.1.15,2013-10-16 19:30:00,
2013-10-16 15:40:00,82.8,68.4,29.91,ENE,70,5.0,6.0,62,0.00,,,0.01,Wunderground v.1.15,2013-10-16 19:40:00,
2013-10-16 15:50:00,82.9,69.0,29.91,East,83,4.0,5.0,63,0.00,,,0.01,Wunderground v.1.15,2013-10-16 19:50:00,
2013-10-16 16:00:00,82.3,68.4,29.91,ESE,108,5.0,5.0,63,0.00,,,0.01,Wunderground v.1.15,2013-10-16 20:00:00,
2013-10-16 16:10:00,82.1,69.2,29.90,East,79,5.0,5.0,65,0.00,,,0.01,Wunderground v.1.15,2013-10-16 20:10:00,
2013-10-16 16:20:00,81.8,68.4,29.90,ENE,75,5.0,5.0,64,0.00,,,0.01,Wunderground v.1.15,2013-10-16 20:20:00,
2013-10-16 16:30:00,81.6,69.6,29.91,ENE,70,5.0,5.0,67,0.00,,,0.01,Wunderground v.1.15,2013-10-16 20:30:00,
2013-10-16 16:40:00,81.6,69.1,29.90,East,84,5.0,5.0,66,0.00,,,0.01,Wunderground v.1.15,2013-10-16 20:40:00,
2013-10-16 16:50:00,81.4,68.9,29.90,ENE,63,6.0,6.0,66,0.00,,,0.01,Wunderground v.1.15,2013-10-16 20:50:00,
2013-10-16 17:00:00,81.4,68.9,29.91,East,83,5.0,11.0,66,0.00,,,0.01,Wunderground v.1.15,2013-10-16 21:00:00,
2013-10-16 17:10:00,81.4,69.4,29.90,NE,51,6.0,6.0,67,0.00,,,0.01,Wunderground v.1.15,2013-10-16 21:10:00,
2013-10-16 17:20:00,81.3,69.3,29.91,NE,51,5.0,5.0,67,0.00,,,0.01,Wunderground v.1.15,2013-10-16 21:20:00,
2013-10-16 17:30:00,81.4,69.4,29.90,ENE,62,4.0,6.0,67,0.00,,,0.01,Wunderground v.1.15,2013-10-16 21:30:00,
2013-10-16 17:40:00,81.2,69.6,29.90,NE,46,4.0,8.0,68,0.00,,,0.01,Wunderground v.1.15,2013-10-16 21:40:00,
2013-10-16 17:50:00,81.1,70.0,29.90,East,95,5.0,5.0,69,0.00,,,0.01,Wunderground v.1.15,2013-10-16 21:50:00,
2013-10-16 18:00:00,81.0,69.9,29.91,ENE,76,4.0,4.0,69,0.00,,,0.01,Wunderground v.1.15,2013-10-16 22:00:00,
2013-10-16 18:10:00,80.9,69.8,29.91,East,79,5.0,5.0,69,0.00,,,0.01,Wunderground v.1.15,2013-10-16 22:10:00,
2013-10-16 18:20:00,80.8,69.7,29.91,ENE,74,4.0,4.0,69,0.00,,,0.01,Wunderground v.1.15,2013-10-16 22:20:00,
2013-10-16 18:30:00,80.8,69.7,29.91,ENE,77,4.0,4.0,69,0.00,,,0.01,Wunderground v.1.15,2013-10-16 22:30:00,
2013-10-16 18:40:00,80.7,69.6,29.91,NE,51,3.0,8.0,69,0.00,,,0.01,Wunderground v.1.15,2013-10-16 22:40:00,
2013-10-16 18:50:00,80.4,69.7,29.91,ENE,65,4.0,4.0,70,0.00,,,0.01,Wunderground v.1.15,2013-10-16 22:50:00,
2013-10-16 19:00:00,80.0,69.7,29.92,ENE,68,3.0,4.0,71,0.00,,,0.01,Wunderground v.1.15,2013-10-16 23:00:00,
2013-10-16 19:09:00,80.0,69.7,29.91,East,84,3.0,3.0,71,0.00,,,0.01,Wunderground v.1.15,2013-10-16 23:09:00,
2013-10-16 19:20:00,80.0,69.7,29.92,East,92,3.0,6.0,71,0.00,,,0.01,Wunderground v.1.15,2013-10-16 23:20:00,
2013-10-16 19:30:00,80.0,69.7,29.92,East,82,3.0,3.0,71,0.00,,,0.01,Wunderground v.1.15,2013-10-16 23:30:00,
2013-10-16 19:39:00,80.0,69.7,29.93,ENE,66,3.0,3.0,71,0.00,,,0.01,Wunderground v.1.15,2013-10-16 23:39:00,
2013-10-16 19:50:00,80.1,69.8,29.93,NNE,20,3.0,3.0,71,0.00,,,0.01,Wunderground v.1.15,2013-10-16 23:50:00,
2013-10-16 20:00:00,80.2,70.4,29.93,ENE,78,4.0,4.0,72,0.00,,,0.01,Wunderground v.1.15,2013-10-17 00:00:00,
2013-10-16 20:09:00,80.1,70.3,29.93,ENE,62,3.0,6.0,72,0.00,,,0.01,Wunderground v.1.15,2013-10-17 00:09:00,
2013-10-16 20:20:00,79.9,70.1,29.93,East,80,3.0,3.0,72,0.00,,,0.01,Wunderground v.1.15,2013-10-17 00:20:00,
2013-10-16 20:30:00,79.7,69.9,29.94,ENE,70,4.0,6.0,72,0.00,,,0.01,Wunderground v.1.15,2013-10-17 00:30:00,
2013-10-16 20:40:00,79.7,69.9,29.94,East,79,4.0,4.0,72,0.00,,,0.01,Wunderground v.1.15,2013-10-17 00:40:00,
2013-10-16 20:50:00,79.7,69.5,29.94,ENE,77,4.0,5.0,71,0.00,,,0.01,Wunderground v.1.15,2013-10-17 00:50:00,
2013-10-16 21:00:00,79.8,70.0,29.95,NE,51,3.0,3.0,72,0.00,,,0.01,Wunderground v.1.15,2013-10-17 01:00:00,
2013-10-16 21:10:00,79.6,69.8,29.95,ENE,62,3.0,3.0,72,0.00,,,0.01,Wunderground v.1.15,2013-10-17 01:10:00,
2013-10-16 21:20:00,79.5,69.7,29.95,East,87,3.0,6.0,72,0.00,,,0.01,Wunderground v.1.15,2013-10-17 01:20:00,
2013-10-16 21:29:00,79.5,69.7,29.96,ESE,110,3.0,5.0,72,0.00,,,0.01,Wunderground v.1.15,2013-10-17 01:29:00,
2013-10-16 21:40:00,79.6,69.8,29.96,ENE,78,3.0,3.0,72,0.00,,,0.01,Wunderground v.1.15,2013-10-17 01:40:00,
2013-10-16 21:50:00,79.5,69.7,29.96,East,81,3.0,3.0,72,0.00,,,0.01,Wunderground v.1.15,2013-10-17 01:50:00,
2013-10-16 21:59:00,79.4,70.0,29.96,ENE,58,2.0,4.0,73,0.00,,,0.01,Wunderground v.1.15,2013-10-17 01:59:00,
2013-10-16 22:10:00,79.4,69.6,29.96,East,82,4.0,6.0,72,0.00,,,0.01,Wunderground v.1.15,2013-10-17 02:10:00,
2013-10-16 22:20:00,79.4,69.6,29.96,East,83,3.0,3.0,72,0.00,,,0.01,Wunderground v.1.15,2013-10-17 02:20:00,
2013-10-16 22:29:00,79.3,69.5,29.96,ENE,72,3.0,3.0,72,0.00,,,0.01,Wunderground v.1.15,2013-10-17 02:29:00,
2013-10-16 22:40:00,79.2,69.4,29.96,ESE,111,3.0,3.0,72,0.00,,,0.01,Wunderground v.1.15,2013-10-17 02:40:00,
2013-10-16 22:50:00,79.3,69.5,29.96,East,79,3.0,4.0,72,0.00,,,0.01,Wunderground v.1.15,2013-10-17 02:50:00,
2013-10-16 23:00:00,79.3,69.5,29.96,East,91,3.0,3.0,72,0.00,,,0.01,Wunderground v.1.15,2013-10-17 03:00:00,
2013-10-16 23:10:00,79.2,69.4,29.96,East,88,3.0,4.0,72,0.00,,,0.01,Wunderground v.1.15,2013-10-17 03:10:00,
2013-10-16 23:20:00,79.3,69.9,29.96,NE,54,3.0,5.0,73,0.00,,,0.01,Wunderground v.1.15,2013-10-17 03:20:00,
2013-10-16 23:29:00,79.1,70.1,29.96,East,92,3.0,4.0,74,0.00,,,0.01,Wunderground v.1.15,2013-10-17 03:29:00,
2013-10-16 23:40:00,79.0,70.0,29.95,ENE,71,2.0,5.0,74,0.00,,,0.01,Wunderground v.1.15,2013-10-17 03:40:00,
2013-10-16 23:50:00,78.9,69.9,29.95,East,83,3.0,4.0,74,0.00,,,0.01,Wunderground v.1.15,2013-10-17 03:50:00,